Time;durP1;ratioP1;P1;durP2;ratioP2;P2;SDS_P1;SDS_P2;PMS_P1;PMS_P2;Temp;Humidity;BMP_temperature;BMP_pressure;BME280_temperature;BME280_humidity;BME280_pressure;Samples;Min_cycle;Max_cycle;Signal;HPM_P1;HPM_P2
2023/03/07 00:00:58;;;;;;;8.05;3.28;;;;;;;;;;4901919;29;20025;-79
2023/03/07 00:03:24;;;;;;;6.85;2.67;;;;;;;;;;4877486;29;20035;-78
2023/03/07 00:05:59;;;;;;;5.30;2.53;;;;;;;;;;4891838;29;20167;-78
2023/03/07 00:08:25;;;;;;;5.13;2.80;;;;;;;;;;4893464;29;20107;-78
2023/03/07 00:10:51;;;;;;;5.68;3.00;;;;;;;;;;4890661;29;20040;-79
2023/03/07 00:13:17;;;;;;;6.82;2.78;;;;;;;;;;4885802;29;20032;-79
2023/03/07 00:15:43;;;;;;;6.80;3.45;;;;;;;;;;4895259;29;20084;-78
2023/03/07 00:18:09;;;;;;;7.72;3.40;;;;;;;;;;4894214;29;20132;-79
2023/03/07 00:20:35;;;;;;;7.07;3.28;;;;;;;;;;4892254;29;20043;-80
2023/03/07 00:23:01;;;;;;;5.60;2.78;;;;;;;;;;4896075;29;20040;-78
2023/03/07 00:25:27;;;;;;;5.68;3.40;;;;;;;;;;4892406;29;20591;-78
2023/03/07 00:27:53;;;;;;;6.05;3.67;;;;;;;;;;4884700;29;20651;-79
2023/03/07 00:30:19;;;;;;;9.27;3.50;;;;;;;;;;4897988;29;20067;-79
2023/03/07 00:32:45;;;;;;;7.18;4.53;;;;;;;;;;4893087;29;20527;-78
2023/03/07 00:35:11;;;;;;;10.38;4.28;;;;;;;;;;4888115;29;20408;-78
2023/03/07 00:37:37;;;;;;;10.40;3.42;;;;;;;;;;4889221;29;20080;-79
2023/03/07 00:40:05;;;;;;;5.78;3.00;;;;;;;;;;4873460;29;20056;-78
2023/03/07 00:42:31;;;;;;;9.32;3.28;;;;;;;;;;4887872;29;20028;-78
2023/03/07 00:44:57;;;;;;;7.72;3.95;;;;;;;;;;4877092;29;20060;-79
2023/03/07 00:47:24;;;;;;;6.30;3.65;;;;;;;;;;4905867;29;20028;-78
2023/03/07 00:49:50;;;;;;;11.15;3.40;;;;;;;;;;4878963;29;20065;-78
2023/03/07 00:52:16;;;;;;;6.88;2.78;;;;;;;;;;4898561;29;20055;-77
2023/03/07 00:54:42;;;;;;;4.45;3.05;;;;;;;;;;4882609;29;20025;-77
2023/03/07 00:57:08;;;;;;;5.50;3.22;;;;;;;;;;4890775;29;20048;-78
2023/03/07 00:59:35;;;;;;;8.85;3.25;;;;;;;;;;4886202;29;20040;-78
2023/03/07 01:02:01;;;;;;;7.35;2.63;;;;;;;;;;4891710;29;20064;-78
2023/03/07 01:04:27;;;;;;;8.77;3.33;;;;;;;;;;4884368;29;20021;-78
2023/03/07 01:06:53;;;;;;;5.40;2.80;;;;;;;;;;4893397;29;20028;-80
2023/03/07 01:09:19;;;;;;;7.97;2.53;;;;;;;;;;4889603;29;20595;-78
2023/03/07 01:11:45;;;;;;;7.95;2.97;;;;;;;;;;4878656;29;20025;-79
2023/03/07 01:14:11;;;;;;;9.63;3.22;;;;;;;;;;4893397;29;20108;-78
2023/03/07 01:16:37;;;;;;;5.80;2.72;;;;;;;;;;4884649;29;20025;-78
2023/03/07 01:19:05;;;;;;;5.40;3.22;;;;;;;;;;4882773;29;20239;-78
2023/03/07 01:21:32;;;;;;;4.60;3.55;;;;;;;;;;4887947;29;20068;-78
2023/03/07 01:23:59;;;;;;;6.50;3.03;;;;;;;;;;4881836;29;20107;-78
2023/03/07 01:26:29;;;;;;;6.80;2.75;;;;;;;;;;4887511;29;20032;-79
2023/03/07 01:28:57;;;;;;;6.78;2.63;;;;;;;;;;4877648;29;20599;-78
2023/03/07 01:31:23;;;;;;;8.38;2.72;;;;;;;;;;4884340;29;20033;-78
2023/03/07 01:33:50;;;;;;;3.33;2.50;;;;;;;;;;4890545;29;20104;-78
2023/03/07 01:36:21;;;;;;;6.43;2.90;;;;;;;;;;4887029;29;20032;-78
2023/03/07 01:38:48;;;;;;;6.55;2.58;;;;;;;;;;4889422;29;20502;-78
2023/03/07 01:41:14;;;;;;;3.72;2.63;;;;;;;;;;4887868;29;20033;-78
2023/03/07 01:43:40;;;;;;;7.53;2.90;;;;;;;;;;4876972;29;20040;-78
2023/03/07 01:46:09;;;;;;;4.90;2.67;;;;;;;;;;4886077;29;20025;-80
2023/03/07 01:48:35;;;;;;;5.63;3.30;;;;;;;;;;4886840;29;20559;-79
2023/03/07 01:51:02;;;;;;;8.98;3.28;;;;;;;;;;4883235;29;20072;-78
2023/03/07 01:53:28;;;;;;;6.05;3.40;;;;;;;;;;4893317;29;20484;-78
2023/03/07 01:55:56;;;;;;;4.22;2.55;;;;;;;;;;4886908;29;20031;-78
2023/03/07 01:58:22;;;;;;;7.50;2.50;;;;;;;;;;4891713;29;20059;-79
2023/03/07 02:00:48;;;;;;;5.22;2.78;;;;;;;;;;4891088;29;20081;-78
2023/03/07 02:03:35;;;;;;;7.43;2.67;;;;;;;;;;4893374;29;20376;-78
2023/03/07 02:06:03;;;;;;;8.77;3.22;;;;;;;;;;4871467;29;20024;-78
2023/03/07 02:08:30;;;;;;;5.38;2.60;;;;;;;;;;4886309;29;20051;-78
2023/03/07 02:10:56;;;;;;;8.32;3.60;;;;;;;;;;4891244;29;20100;-79
2023/03/07 02:13:22;;;;;;;5.53;2.72;;;;;;;;;;4873557;29;20040;-79
2023/03/07 02:15:49;;;;;;;4.75;2.80;;;;;;;;;;4881749;29;20029;-78
2023/03/07 02:18:18;;;;;;;5.53;2.55;;;;;;;;;;4892640;29;20115;-78
2023/03/07 02:20:44;;;;;;;6.07;2.72;;;;;;;;;;4891487;29;20024;-77
2023/03/07 02:23:14;;;;;;;6.53;2.70;;;;;;;;;;4895390;29;20096;-77
2023/03/07 02:25:42;;;;;;;6.70;2.50;;;;;;;;;;4891070;29;20021;-78
2023/03/07 02:28:11;;;;;;;5.00;2.70;;;;;;;;;;4887775;29;20037;-77
2023/03/07 02:30:37;;;;;;;5.00;2.53;;;;;;;;;;4895643;29;20040;-78
2023/03/07 02:33:03;;;;;;;4.00;2.22;;;;;;;;;;4891049;29;20048;-78
2023/03/07 02:35:29;;;;;;;5.75;2.50;;;;;;;;;;4892925;29;20048;-78
2023/03/07 02:37:57;;;;;;;3.53;2.70;;;;;;;;;;4889537;29;20029;-78
2023/03/07 02:40:24;;;;;;;5.78;2.92;;;;;;;;;;4878088;29;20487;-78
2023/03/07 02:42:53;;;;;;;5.53;2.42;;;;;;;;;;4893062;29;20419;-77
2023/03/07 02:45:19;;;;;;;4.28;2.60;;;;;;;;;;4892507;29;20156;-78
2023/03/07 02:47:45;;;;;;;6.07;2.55;;;;;;;;;;4896320;29;20101;-77
2023/03/07 02:50:13;;;;;;;4.78;2.50;;;;;;;;;;4896510;29;20037;-78
2023/03/07 02:52:39;;;;;;;5.20;2.85;;;;;;;;;;4894009;29;20096;-79
2023/03/07 02:55:06;;;;;;;7.88;2.92;;;;;;;;;;4895384;29;20551;-78
2023/03/07 02:57:32;;;;;;;3.08;2.50;;;;;;;;;;4894104;29;20033;-78
2023/03/07 02:59:58;;;;;;;4.53;2.88;;;;;;;;;;4880791;29;20465;-79
2023/03/07 03:02:25;;;;;;;6.70;3.05;;;;;;;;;;4897092;29;20111;-78
2023/03/07 03:04:51;;;;;;;5.97;2.75;;;;;;;;;;4887248;29;20112;-78
2023/03/07 03:07:17;;;;;;;3.75;2.22;;;;;;;;;;4895893;29;20029;-78
2023/03/07 03:09:43;;;;;;;7.15;2.42;;;;;;;;;;4889407;29;20025;-78
2023/03/07 03:12:09;;;;;;;3.17;2.80;;;;;;;;;;4892950;29;20173;-78
2023/03/07 03:14:35;;;;;;;4.38;2.35;;;;;;;;;;4888727;29;20020;-78
2023/03/07 03:17:02;;;;;;;8.40;2.70;;;;;;;;;;4891144;29;20036;-78
2023/03/07 03:19:28;;;;;;;6.88;2.85;;;;;;;;;;4894743;29;20115;-78
2023/03/07 03:21:55;;;;;;;6.53;2.47;;;;;;;;;;4892769;29;20029;-78
2023/03/07 03:24:21;;;;;;;5.38;2.20;;;;;;;;;;4889656;29;20104;-78
2023/03/07 03:26:47;;;;;;;5.45;2.65;;;;;;;;;;4893574;29;20104;-78
2023/03/07 03:29:13;;;;;;;5.05;2.33;;;;;;;;;;4885439;29;20041;-78
2023/03/07 03:31:39;;;;;;;7.03;2.53;;;;;;;;;;4890195;29;20060;-78
2023/03/07 03:34:05;;;;;;;3.58;3.08;;;;;;;;;;4892286;29;20028;-78
2023/03/07 03:36:32;;;;;;;5.78;2.58;;;;;;;;;;4895102;29;20020;-78
2023/03/07 03:38:59;;;;;;;7.35;2.88;;;;;;;;;;4892635;29;20047;-78
2023/03/07 03:41:25;;;;;;;3.38;2.08;;;;;;;;;;4888854;29;20033;-78
2023/03/07 03:43:51;;;;;;;5.00;2.40;;;;;;;;;;4892170;29;20112;-79
2023/03/07 03:46:18;;;;;;;4.07;2.63;;;;;;;;;;4870538;29;20468;-78
2023/03/07 03:48:45;;;;;;;3.35;2.45;;;;;;;;;;4882420;29;20068;-78
2023/03/07 03:51:13;;;;;;;3.70;3.00;;;;;;;;;;4900117;29;20033;-78
2023/03/07 03:53:39;;;;;;;5.55;2.42;;;;;;;;;;4895113;29;20487;-78
2023/03/07 03:56:24;;;;;;;7.60;2.33;;;;;;;;;;4895752;29;20518;-78
2023/03/07 03:58:52;;;;;;;3.17;2.10;;;;;;;;;;4898025;29;20056;-78
2023/03/07 04:01:19;;;;;;;3.47;2.13;;;;;;;;;;4887942;29;20029;-78
2023/03/07 04:03:47;;;;;;;6.25;2.80;;;;;;;;;;4893449;29;20088;-78
2023/03/07 04:06:14;;;;;;;4.45;2.80;;;;;;;;;;4897672;29;20432;-78
2023/03/07 04:08:41;;;;;;;4.43;2.17;;;;;;;;;;4887856;29;20028;-78
2023/03/07 04:11:07;;;;;;;5.78;2.45;;;;;;;;;;4890010;29;20068;-78
2023/03/07 04:13:34;;;;;;;6.30;2.58;;;;;;;;;;4893628;29;20028;-78
2023/03/07 04:16:00;;;;;;;5.78;2.58;;;;;;;;;;4885901;29;20036;-79
2023/03/07 04:18:27;;;;;;;4.05;2.72;;;;;;;;;;4889249;29;20088;-78
2023/03/07 04:20:53;;;;;;;4.20;2.50;;;;;;;;;;4888123;29;20025;-78
2023/03/07 04:23:20;;;;;;;6.15;3.03;;;;;;;;;;4888564;29;20025;-78
2023/03/07 04:25:47;;;;;;;5.68;2.83;;;;;;;;;;4888659;29;20024;-78
2023/03/07 04:28:13;;;;;;;4.75;2.25;;;;;;;;;;4897483;29;20495;-78
2023/03/07 04:30:39;;;;;;;5.60;2.78;;;;;;;;;;4892610;29;20093;-78
2023/03/07 04:33:05;;;;;;;5.57;2.70;;;;;;;;;;4884747;29;20041;-78
2023/03/07 04:35:31;;;;;;;7.00;3.47;;;;;;;;;;4889058;29;20154;-79
2023/03/07 04:37:57;;;;;;;4.15;2.72;;;;;;;;;;4900824;29;20058;-77
2023/03/07 04:40:23;;;;;;;2.38;2.17;;;;;;;;;;4891003;29;20021;-77
2023/03/07 04:42:49;;;;;;;4.35;2.72;;;;;;;;;;4892047;29;20048;-79
2023/03/07 04:45:15;;;;;;;6.45;3.05;;;;;;;;;;4897386;29;20076;-77
2023/03/07 04:47:41;;;;;;;5.72;2.25;;;;;;;;;;4890462;29;20403;-77
2023/03/07 04:50:08;;;;;;;5.07;3.63;;;;;;;;;;4896472;29;20040;-78
2023/03/07 04:52:34;;;;;;;4.03;2.70;;;;;;;;;;4894998;29;20108;-78
2023/03/07 04:55:00;;;;;;;4.60;2.53;;;;;;;;;;4892126;29;20104;-78
2023/03/07 04:57:26;;;;;;;4.05;2.55;;;;;;;;;;4892846;29;20041;-77
2023/03/07 04:59:52;;;;;;;3.97;2.20;;;;;;;;;;4891842;29;20028;-78
2023/03/07 05:02:18;;;;;;;5.70;3.20;;;;;;;;;;4893838;29;20512;-77
2023/03/07 05:04:45;;;;;;;5.00;2.58;;;;;;;;;;4890257;29;20103;-77
2023/03/07 05:07:11;;;;;;;4.78;2.35;;;;;;;;;;4892607;29;20107;-77
2023/03/07 05:09:37;;;;;;;5.60;2.85;;;;;;;;;;4895172;29;20033;-77
2023/03/07 05:12:03;;;;;;;3.42;2.33;;;;;;;;;;4903303;29;20039;-77
2023/03/07 05:14:29;;;;;;;3.85;2.45;;;;;;;;;;4891200;29;20397;-77
2023/03/07 05:16:55;;;;;;;8.20;2.67;;;;;;;;;;4893803;29;20057;-76
2023/03/07 05:19:21;;;;;;;6.72;2.88;;;;;;;;;;4889343;29;20028;-77
2023/03/07 05:21:48;;;;;;;6.18;3.63;;;;;;;;;;4892691;29;20068;-78
2023/03/07 05:24:14;;;;;;;4.57;2.80;;;;;;;;;;4891890;29;20036;-77
2023/03/07 05:26:40;;;;;;;4.53;2.65;;;;;;;;;;4892003;29;20047;-78
2023/03/07 05:29:06;;;;;;;5.38;2.22;;;;;;;;;;4890198;29;20560;-77
2023/03/07 05:31:33;;;;;;;7.28;3.00;;;;;;;;;;4888898;29;20050;-78
2023/03/07 05:33:59;;;;;;;5.32;2.58;;;;;;;;;;4882497;29;20107;-78
2023/03/07 05:36:25;;;;;;;6.38;2.42;;;;;;;;;;4891901;29;20055;-78
2023/03/07 05:38:52;;;;;;;2.78;2.10;;;;;;;;;;4891706;29;20032;-76
2023/03/07 05:41:18;;;;;;;3.30;2.85;;;;;;;;;;4892775;29;20084;-77
2023/03/07 05:43:45;;;;;;;6.82;2.60;;;;;;;;;;4888904;29;20119;-76
2023/03/07 05:46:11;;;;;;;3.40;2.30;;;;;;;;;;4890607;29;20033;-77
2023/03/07 05:48:37;;;;;;;6.30;2.90;;;;;;;;;;4883931;29;20021;-78
2023/03/07 05:51:04;;;;;;;5.32;2.60;;;;;;;;;;4890508;29;20127;-77
2023/03/07 05:53:30;;;;;;;5.18;2.80;;;;;;;;;;4891427;29;20432;-78
2023/03/07 05:55:56;;;;;;;3.40;2.60;;;;;;;;;;4887435;29;20440;-79
2023/03/07 05:58:22;;;;;;;2.45;2.20;;;;;;;;;;4890545;29;20031;-77
2023/03/07 06:00:48;;;;;;;3.35;1.90;;;;;;;;;;4891544;29;20065;-77
2023/03/07 06:03:14;;;;;;;2.28;2.00;;;;;;;;;;4892146;29;20403;-77
2023/03/07 06:05:41;;;;;;;3.28;2.30;;;;;;;;;;4891535;29;20107;-77
2023/03/07 06:08:07;;;;;;;4.47;2.30;;;;;;;;;;4887726;29;20040;-77
2023/03/07 06:10:33;;;;;;;4.88;2.15;;;;;;;;;;4884808;29;20392;-77
2023/03/07 06:12:59;;;;;;;3.55;2.42;;;;;;;;;;4892511;29;20033;-78
2023/03/07 06:15:25;;;;;;;2.72;2.10;;;;;;;;;;4894443;29;20052;-77
2023/03/07 06:17:51;;;;;;;3.85;2.75;;;;;;;;;;4896950;29;20029;-78
2023/03/07 06:20:21;;;;;;;4.88;2.10;;;;;;;;;;4893571;29;20060;-79
2023/03/07 06:22:48;;;;;;;2.45;2.10;;;;;;;;;;4891885;29;20028;-78
2023/03/07 06:25:15;;;;;;;3.83;2.47;;;;;;;;;;4891593;29;20060;-78
2023/03/07 06:27:41;;;;;;;4.35;2.22;;;;;;;;;;4889659;29;20078;-77
2023/03/07 06:30:08;;;;;;;4.88;3.08;;;;;;;;;;4893317;29;20578;-78
2023/03/07 06:32:35;;;;;;;2.78;2.00;;;;;;;;;;4876956;29;20543;-78
2023/03/07 06:35:01;;;;;;;3.50;2.10;;;;;;;;;;4887061;29;20128;-78
2023/03/07 06:37:27;;;;;;;4.90;2.25;;;;;;;;;;4880310;29;20044;-77
2023/03/07 06:39:54;;;;;;;2.97;2.20;;;;;;;;;;4876415;29;20092;-77
2023/03/07 06:42:20;;;;;;;2.92;2.30;;;;;;;;;;4884346;29;20444;-77
2023/03/07 06:44:46;;;;;;;5.25;2.55;;;;;;;;;;4892248;29;20415;-78
2023/03/07 06:47:12;;;;;;;3.85;2.40;;;;;;;;;;4891223;29;20027;-77
2023/03/07 06:49:38;;;;;;;4.45;2.17;;;;;;;;;;4890936;29;20057;-77
2023/03/07 06:52:05;;;;;;;3.50;2.40;;;;;;;;;;4890375;29;20050;-78
2023/03/07 06:54:31;;;;;;;6.65;2.03;;;;;;;;;;4891212;29;20028;-78
2023/03/07 06:56:57;;;;;;;3.50;2.03;;;;;;;;;;4890607;29;20037;-77
2023/03/07 06:59:23;;;;;;;4.03;2.22;;;;;;;;;;4891646;29;20052;-78
2023/03/07 07:01:49;;;;;;;2.10;1.90;;;;;;;;;;4890114;29;20021;-78
2023/03/07 07:04:15;;;;;;;2.90;2.10;;;;;;;;;;4889398;29;20388;-77
2023/03/07 07:06:41;;;;;;;4.15;2.20;;;;;;;;;;4872375;29;20455;-77
2023/03/07 07:09:07;;;;;;;2.80;2.25;;;;;;;;;;4895699;29;20039;-77
2023/03/07 07:11:33;;;;;;;3.05;2.10;;;;;;;;;;4895824;29;20112;-77
2023/03/07 07:13:59;;;;;;;6.07;2.28;;;;;;;;;;4885957;29;20054;-77
2023/03/07 07:16:25;;;;;;;4.85;2.50;;;;;;;;;;4891714;29;20036;-77
2023/03/07 07:18:51;;;;;;;5.95;2.85;;;;;;;;;;4880211;29;20506;-77
2023/03/07 07:21:18;;;;;;;2.72;2.08;;;;;;;;;;4896944;29;20028;-77
2023/03/07 07:23:44;;;;;;;4.03;2.30;;;;;;;;;;4893386;29;20044;-78
2023/03/07 07:26:10;;;;;;;6.10;2.25;;;;;;;;;;4897415;29;20028;-77
2023/03/07 07:28:37;;;;;;;7.40;2.55;;;;;;;;;;4892606;29;20035;-77
2023/03/07 07:31:03;;;;;;;4.15;2.47;;;;;;;;;;4895320;29;20429;-78
2023/03/07 07:33:30;;;;;;;6.45;2.60;;;;;;;;;;4877062;29;20088;-77
2023/03/07 07:35:56;;;;;;;5.15;2.28;;;;;;;;;;4897662;29;20020;-77
2023/03/07 07:38:22;;;;;;;4.05;2.30;;;;;;;;;;4893375;29;20028;-77
2023/03/07 07:40:48;;;;;;;2.55;2.10;;;;;;;;;;4892870;29;20076;-78
2023/03/07 07:43:15;;;;;;;5.03;2.30;;;;;;;;;;4895866;29;20036;-77
2023/03/07 07:45:41;;;;;;;3.90;2.20;;;;;;;;;;4894174;29;20036;-77
2023/03/07 07:48:07;;;;;;;2.50;2.30;;;;;;;;;;4894478;29;20111;-77
2023/03/07 07:50:34;;;;;;;4.00;2.50;;;;;;;;;;4896109;29;20040;-78
2023/03/07 07:53:00;;;;;;;4.05;2.70;;;;;;;;;;4890714;29;20048;-77
2023/03/07 07:55:27;;;;;;;5.45;3.25;;;;;;;;;;4900096;29;20024;-77
2023/03/07 07:57:53;;;;;;;2.75;2.42;;;;;;;;;;4890751;29;20039;-77
2023/03/07 08:00:22;;;;;;;3.55;2.50;;;;;;;;;;4888552;29;20077;-77
2023/03/07 08:02:49;;;;;;;3.75;2.35;;;;;;;;;;4893867;29;20515;-78
2023/03/07 08:05:16;;;;;;;3.70;2.80;;;;;;;;;;4899382;29;20021;-78
2023/03/07 08:07:42;;;;;;;5.53;2.88;;;;;;;;;;4881551;29;20519;-77
2023/03/07 08:10:09;;;;;;;3.72;2.22;;;;;;;;;;4887394;29;20036;-77
2023/03/07 08:12:35;;;;;;;5.90;2.05;;;;;;;;;;4894087;29;20116;-77
2023/03/07 08:15:01;;;;;;;3.53;3.20;;;;;;;;;;4877830;29;20134;-77
2023/03/07 08:17:30;;;;;;;2.97;2.67;;;;;;;;;;4876423;29;20056;-78
2023/03/07 08:20:00;;;;;;;3.47;2.38;;;;;;;;;;4892926;29;20036;-77
2023/03/07 08:22:26;;;;;;;5.43;2.42;;;;;;;;;;4878641;29;20446;-77
2023/03/07 08:24:53;;;;;;;6.70;3.00;;;;;;;;;;4896274;29;20088;-77
2023/03/07 08:27:19;;;;;;;6.45;2.67;;;;;;;;;;4895447;29;20072;-77
2023/03/07 08:29:48;;;;;;;3.42;2.30;;;;;;;;;;4893908;29;20041;-77
2023/03/07 08:32:14;;;;;;;3.00;2.45;;;;;;;;;;4894689;29;20096;-77
2023/03/07 08:34:40;;;;;;;2.80;2.20;;;;;;;;;;4892175;29;20033;-77
2023/03/07 08:37:06;;;;;;;4.88;2.17;;;;;;;;;;4896781;29;20056;-79
2023/03/07 08:39:32;;;;;;;2.22;1.88;;;;;;;;;;4895827;29;20024;-80
2023/03/07 08:41:59;;;;;;;5.95;2.65;;;;;;;;;;4893488;29;20341;-77
2023/03/07 08:44:25;;;;;;;5.63;2.58;;;;;;;;;;4874438;29;20042;-77
2023/03/07 08:46:51;;;;;;;3.92;2.63;;;;;;;;;;4891606;29;20024;-78
2023/03/07 08:49:18;;;;;;;3.33;2.42;;;;;;;;;;4893811;29;20037;-78
2023/03/07 08:51:46;;;;;;;3.38;2.63;;;;;;;;;;4875343;29;20537;-78
2023/03/07 08:54:12;;;;;;;5.80;2.80;;;;;;;;;;4891226;29;20119;-78
2023/03/07 08:56:38;;;;;;;2.70;2.10;;;;;;;;;;4887808;29;20046;-77
2023/03/07 08:59:04;;;;;;;3.75;2.47;;;;;;;;;;4892764;29;20515;-77
2023/03/07 09:01:31;;;;;;;4.28;1.92;;;;;;;;;;4892003;29;20033;-78
2023/03/07 09:03:57;;;;;;;2.78;2.50;;;;;;;;;;4893721;29;20491;-77
2023/03/07 09:06:23;;;;;;;3.67;2.38;;;;;;;;;;4887320;29;20570;-77
2023/03/07 09:08:49;;;;;;;3.83;2.08;;;;;;;;;;4895453;29;20035;-78
2023/03/07 09:11:17;;;;;;;3.72;2.35;;;;;;;;;;4894634;29;20967;-78
2023/03/07 09:13:44;;;;;;;3.03;2.30;;;;;;;;;;4895719;29;20079;-78
2023/03/07 09:16:10;;;;;;;3.90;2.15;;;;;;;;;;4880068;29;20452;-79
2023/03/07 09:18:36;;;;;;;3.97;2.20;;;;;;;;;;4890150;29;20040;-78
2023/03/07 09:21:03;;;;;;;2.83;2.28;;;;;;;;;;4889865;29;20071;-78
2023/03/07 09:23:30;;;;;;;4.57;2.40;;;;;;;;;;4886088;29;20547;-77
2023/03/07 09:25:59;;;;;;;2.92;2.08;;;;;;;;;;4883191;29;20107;-78
2023/03/07 09:28:26;;;;;;;4.43;2.13;;;;;;;;;;4882193;29;20052;-80
2023/03/07 09:30:52;;;;;;;4.78;2.40;;;;;;;;;;4905774;29;20131;-79
2023/03/07 09:33:19;;;;;;;6.28;2.75;;;;;;;;;;4902827;29;20025;-79
2023/03/07 09:35:45;;;;;;;5.70;2.83;;;;;;;;;;4889066;29;20151;-77
2023/03/07 09:38:11;;;;;;;3.55;2.70;;;;;;;;;;4889112;29;20139;-78
2023/03/07 09:40:38;;;;;;;3.00;2.15;;;;;;;;;;4870855;29;20020;-77
2023/03/07 09:43:09;;;;;;;4.07;2.10;;;;;;;;;;4876905;29;20511;-79
2023/03/07 09:45:51;;;;;;;4.90;2.22;;;;;;;;;;4895692;29;20020;-79
2023/03/07 09:48:23;;;;;;;2.85;2.05;;;;;;;;;;4904181;29;20035;-79
2023/03/07 09:50:53;;;;;;;3.40;2.15;;;;;;;;;;4894245;29;20126;-80
2023/03/07 09:53:36;;;;;;;3.10;1.98;;;;;;;;;;4894242;29;20510;-79
2023/03/07 09:56:03;;;;;;;2.65;1.98;;;;;;;;;;4895926;29;20392;-79
2023/03/07 09:58:29;;;;;;;2.80;2.05;;;;;;;;;;4893448;29;20060;-78
2023/03/07 10:00:57;;;;;;;3.05;2.08;;;;;;;;;;4897872;29;20033;-79
2023/03/07 10:03:32;;;;;;;3.53;2.08;;;;;;;;;;4897641;29;20044;-79
2023/03/07 10:06:08;;;;;;;3.92;2.13;;;;;;;;;;4909528;29;20028;-79
2023/03/07 10:08:34;;;;;;;2.45;2.00;;;;;;;;;;4896992;29;20020;-79
2023/03/07 10:11:03;;;;;;;7.00;2.70;;;;;;;;;;4909099;29;20032;-79
2023/03/07 10:13:48;;;;;;;4.07;2.33;;;;;;;;;;4897364;29;20024;-79
2023/03/07 10:16:32;;;;;;;2.28;2.05;;;;;;;;;;4919881;29;20020;-79
2023/03/07 10:19:01;;;;;;;2.37;2.00;;;;;;;;;;4913561;29;20039;-81
2023/03/07 10:21:47;;;;;;;2.28;2.00;;;;;;;;;;4910716;29;20020;-80
2023/03/07 10:24:34;;;;;;;4.35;1.88;;;;;;;;;;4904399;29;20044;-79
2023/03/07 10:27:07;;;;;;;2.10;1.90;;;;;;;;;;4902750;29;20028;-80
2023/03/07 10:29:42;;;;;;;4.00;2.75;;;;;;;;;;4888945;29;20064;-79
2023/03/07 10:32:11;;;;;;;2.15;1.77;;;;;;;;;;4888548;29;20474;-79
2023/03/07 10:34:38;;;;;;;3.67;2.03;;;;;;;;;;4893136;29;20037;-80
2023/03/07 10:37:17;;;;;;;3.10;2.20;;;;;;;;;;4898664;29;20032;-79
2023/03/07 10:39:53;;;;;;;7.43;2.67;;;;;;;;;;4892326;29;20104;-79
2023/03/07 10:42:23;;;;;;;4.85;2.45;;;;;;;;;;4884636;29;20412;-78
2023/03/07 10:44:50;;;;;;;3.25;2.47;;;;;;;;;;4901465;29;20066;-78
2023/03/07 10:47:21;;;;;;;3.22;1.80;;;;;;;;;;4898334;29;20085;-78
2023/03/07 10:49:48;;;;;;;5.22;2.17;;;;;;;;;;4905262;29;20036;-82
2023/03/07 10:52:33;;;;;;;3.58;1.70;;;;;;;;;;4905991;29;20301;-79
2023/03/07 10:55:18;;;;;;;3.08;2.03;;;;;;;;;;4902903;29;20112;-80
2023/03/07 10:57:45;;;;;;;2.63;1.75;;;;;;;;;;4910700;29;20056;-80
2023/03/07 11:00:17;;;;;;;1.67;1.58;;;;;;;;;;4906660;29;20029;-79
2023/03/07 11:02:49;;;;;;;1.73;1.60;;;;;;;;;;4909612;29;20021;-80
2023/03/07 11:05:32;;;;;;;1.63;1.52;;;;;;;;;;4913069;29;20029;-80
2023/03/07 11:07:59;;;;;;;1.70;1.60;;;;;;;;;;4915025;29;20028;-79
2023/03/07 11:10:34;;;;;;;1.88;1.63;;;;;;;;;;4904266;29;20497;-80
2023/03/07 11:13:07;;;;;;;3.47;1.95;;;;;;;;;;4905042;29;20032;-81
2023/03/07 11:15:33;;;;;;;2.85;1.70;;;;;;;;;;4907761;29;20104;-80
2023/03/07 11:17:59;;;;;;;1.67;1.58;;;;;;;;;;4908548;29;20035;-81
2023/03/07 11:20:45;;;;;;;1.90;1.80;;;;;;;;;;4912407;29;20043;-80
2023/03/07 11:23:22;;;;;;;2.30;1.67;;;;;;;;;;4907965;29;20036;-80
2023/03/07 11:25:48;;;;;;;2.80;1.80;;;;;;;;;;4910750;29;20023;-81
2023/03/07 11:28:28;;;;;;;2.05;1.50;;;;;;;;;;4906671;29;20099;-82
2023/03/07 11:31:07;;;;;;;2.85;1.50;;;;;;;;;;4912059;29;20203;-80
2023/03/07 11:33:44;;;;;;;3.45;1.95;;;;;;;;;;4909246;29;20036;-81
2023/03/07 11:36:18;;;;;;;2.47;1.67;;;;;;;;;;4911781;29;20024;-82
2023/03/07 11:38:59;;;;;;;1.95;1.55;;;;;;;;;;4898446;29;20036;-82
2023/03/07 11:41:30;;;;;;;1.60;1.50;;;;;;;;;;4915511;29;20036;-81
2023/03/07 11:44:02;;;;;;;2.35;1.50;;;;;;;;;;4912940;29;20072;-81
2023/03/07 11:46:40;;;;;;;2.78;1.48;;;;;;;;;;4919783;29;20024;-81
2023/03/07 11:49:12;;;;;;;4.70;1.70;;;;;;;;;;4918110;29;20024;-81
2023/03/07 11:51:39;;;;;;;3.25;1.77;;;;;;;;;;4925549;29;20032;-81
2023/03/07 11:54:24;;;;;;;1.80;1.70;;;;;;;;;;4902143;29;20029;-79
2023/03/07 11:56:53;;;;;;;1.60;1.50;;;;;;;;;;4911711;29;20115;-79
2023/03/07 11:59:38;;;;;;;2.20;1.88;;;;;;;;;;4927063;29;20044;-81
2023/03/07 12:02:17;;;;;;;3.67;2.78;;;;;;;;;;4913694;29;20028;-79
2023/03/07 12:04:43;;;;;;;1.60;1.50;;;;;;;;;;4902854;29;20028;-80
2023/03/07 12:07:25;;;;;;;4.50;2.60;;;;;;;;;;4908458;29;20084;-80
2023/03/07 12:09:54;;;;;;;1.95;1.60;;;;;;;;;;4903729;29;20060;-80
2023/03/07 12:12:40;;;;;;;1.80;1.63;;;;;;;;;;4904719;29;20028;-80
2023/03/07 12:15:06;;;;;;;2.65;1.77;;;;;;;;;;4907459;29;20057;-80
2023/03/07 12:17:47;;;;;;;1.70;1.60;;;;;;;;;;4907228;29;20043;-80
2023/03/07 12:20:13;;;;;;;3.13;1.60;;;;;;;;;;4903099;29;20036;-80
2023/03/07 12:22:46;;;;;;;1.60;1.50;;;;;;;;;;4911581;29;20048;-80
2023/03/07 12:25:23;;;;;;;2.55;1.80;;;;;;;;;;4907866;29;20027;-80
2023/03/07 12:27:52;;;;;;;1.88;1.60;;;;;;;;;;4900117;29;20028;-80
2023/03/07 12:30:22;;;;;;;2.50;1.63;;;;;;;;;;4904472;29;20128;-80
2023/03/07 12:32:49;;;;;;;1.55;1.45;;;;;;;;;;4892861;29;20029;-81
2023/03/07 12:35:27;;;;;;;1.70;1.58;;;;;;;;;;4908022;29;20056;-80
2023/03/07 12:38:11;;;;;;;1.67;1.55;;;;;;;;;;4894735;29;20088;-82
2023/03/07 12:40:39;;;;;;;1.95;1.60;;;;;;;;;;4898624;29;20037;-84
2023/03/07 12:43:14;;;;;;;2.00;1.40;;;;;;;;;;4891306;29;20035;-85
2023/03/07 12:45:47;;;;;;;1.45;1.30;;;;;;;;;;4900756;29;20039;-81
2023/03/07 12:48:13;;;;;;;1.60;1.50;;;;;;;;;;4910713;29;20069;-80
2023/03/07 12:50:54;;;;;;;2.90;1.70;;;;;;;;;;4914432;29;20016;-80
2023/03/07 12:53:36;;;;;;;2.60;1.63;;;;;;;;;;4881874;29;20113;-80
2023/03/07 12:56:03;;;;;;;1.95;1.50;;;;;;;;;;4883484;29;20044;-80
2023/03/07 12:58:35;;;;;;;1.70;1.60;;;;;;;;;;4897430;29;20092;-80
2023/03/07 13:01:02;;;;;;;1.70;1.60;;;;;;;;;;4900150;29;20020;-79
2023/03/07 13:03:55;;;;;;;1.70;1.60;;;;;;;;;;4903072;29;20021;-81
2023/03/07 13:06:22;;;;;;;1.90;1.70;;;;;;;;;;4888872;29;20048;-83
2023/03/07 13:08:49;;;;;;;1.90;1.67;;;;;;;;;;4875639;29;20449;-84
2023/03/07 13:11:16;;;;;;;2.15;1.58;;;;;;;;;;4878396;29;20024;-85
2023/03/07 13:13:42;;;;;;;1.60;1.50;;;;;;;;;;4871692;29;20025;-86
2023/03/07 13:16:11;;;;;;;4.05;2.30;;;;;;;;;;4856090;29;20132;-85
2023/03/07 13:18:37;;;;;;;1.88;1.70;;;;;;;;;;4872543;29;20076;-84
2023/03/07 13:21:11;;;;;;;1.90;1.60;;;;;;;;;;4856733;29;20123;-85
2023/03/07 13:23:38;;;;;;;3.13;2.10;;;;;;;;;;4875082;29;20033;-83
2023/03/07 13:26:07;;;;;;;2.20;2.00;;;;;;;;;;4874891;29;20029;-82
2023/03/07 13:28:36;;;;;;;2.20;1.70;;;;;;;;;;4876798;29;20029;-82
2023/03/07 13:31:25;;;;;;;1.70;1.60;;;;;;;;;;4874049;29;20838;-82
2023/03/07 13:33:51;;;;;;;1.60;1.50;;;;;;;;;;4876839;29;20048;-86
2023/03/07 13:36:44;;;;;;;2.22;2.03;;;;;;;;;;4879060;29;20040;-82
2023/03/07 13:39:29;;;;;;;1.67;1.50;;;;;;;;;;4858328;29;20049;-84
2023/03/07 13:41:55;;;;;;;;;;;;;;;;;;4856605;29;20056;-82
2023/03/07 13:44:29;;;;;;;2.67;1.60;;;;;;;;;;4868775;29;19912;-82
2023/03/07 13:47:00;;;;;;;2.25;1.80;;;;;;;;;;4865186;29;20291;-82
2023/03/07 13:49:42;;;;;;;2.03;1.83;;;;;;;;;;4870712;29;20029;-82
2023/03/07 13:52:20;;;;;;;2.05;1.95;;;;;;;;;;4853455;29;20508;-83
2023/03/07 13:54:47;;;;;;;2.92;2.00;;;;;;;;;;4866158;29;20048;-82
2023/03/07 13:57:15;;;;;;;2.30;1.50;;;;;;;;;;4866835;29;20036;-83
2023/03/07 13:59:46;;;;;;;1.90;1.50;;;;;;;;;;4868610;29;20516;-80
2023/03/07 14:02:14;;;;;;;2.08;1.80;;;;;;;;;;4870085;29;20116;-82
2023/03/07 14:04:53;;;;;;;1.85;1.75;;;;;;;;;;4862664;29;20081;-81
2023/03/07 14:07:30;;;;;;;2.50;1.50;;;;;;;;;;4866435;29;20025;-81
2023/03/07 14:09:58;;;;;;;2.05;1.70;;;;;;;;;;4867871;29;20032;-82
2023/03/07 14:12:43;;;;;;;1.80;1.70;;;;;;;;;;4909670;29;20041;-82
2023/03/07 14:15:31;;;;;;;2.95;2.60;;;;;;;;;;4878724;29;20073;-84
2023/03/07 14:18:09;;;;;;;1.70;1.60;;;;;;;;;;4890074;29;20119;-83
2023/03/07 14:20:40;;;;;;;2.40;1.60;;;;;;;;;;4876765;29;20025;-83
2023/03/07 14:23:08;;;;;;;1.85;1.67;;;;;;;;;;4876070;29;20029;-82
2023/03/07 14:25:39;;;;;;;1.65;1.55;;;;;;;;;;4876548;29;20487;-82
2023/03/07 14:28:22;;;;;;;1.75;1.55;;;;;;;;;;4880326;29;20037;-82
2023/03/07 14:30:53;;;;;;;1.70;1.60;;;;;;;;;;4875640;29;20129;-82
2023/03/07 14:33:19;;;;;;;1.90;1.67;;;;;;;;;;4874499;29;20033;-82
2023/03/07 14:35:45;;;;;;;1.50;1.40;;;;;;;;;;4877130;29;20411;-83
2023/03/07 14:38:31;;;;;;;1.40;1.30;;;;;;;;;;4870090;29;21022;-84
2023/03/07 14:40:57;;;;;;;1.50;1.40;;;;;;;;;;4873760;29;20487;-84
2023/03/07 14:43:23;;;;;;;1.40;1.30;;;;;;;;;;4872778;29;20081;-84
2023/03/07 14:45:58;;;;;;;1.85;1.25;;;;;;;;;;4868868;29;20024;-83
2023/03/07 14:48:43;;;;;;;2.03;1.80;;;;;;;;;;4894468;29;20036;-82
2023/03/07 14:51:17;;;;;;;1.55;1.45;;;;;;;;;;4907558;29;20044;-81
2023/03/07 14:53:43;;;;;;;3.85;1.98;;;;;;;;;;4903663;29;20040;-80